createdAt,value
2023-11-03T00:00:03.873Z,9.18
2023-11-03T00:02:06.941Z,9.09
2023-11-03T00:04:10.073Z,9.17
2023-11-03T00:06:11.989Z,9.17
2023-11-03T00:08:13.541Z,9.13
2023-11-03T00:10:15.440Z,9.15
2023-11-03T00:12:17.042Z,9.08
2023-11-03T00:14:18.726Z,9.03
2023-11-03T00:16:20.190Z,9.06
2023-11-03T00:18:23.553Z,9.08
2023-11-03T00:20:25.173Z,9.08
2023-11-03T00:22:28.618Z,9.06
2023-11-03T00:24:30.260Z,9.01
2023-11-03T00:26:31.726Z,8.95
2023-11-03T00:28:33.138Z,8.99
2023-11-03T00:30:36.706Z,8.97
2023-11-03T00:32:39.114Z,8.96
2023-11-03T00:34:40.644Z,8.95
2023-11-03T00:36:43.849Z,8.97
2023-11-03T00:38:47.322Z,8.92
2023-11-03T00:40:48.753Z,8.88
2023-11-03T00:42:50.204Z,8.86
2023-11-03T00:44:51.691Z,8.84
2023-11-03T00:46:53.138Z,8.89
2023-11-03T00:48:55.800Z,8.90
2023-11-03T00:50:57.414Z,8.92
2023-11-03T00:52:58.894Z,8.87
2023-11-03T00:55:00.778Z,8.89
2023-11-03T00:57:02.647Z,8.80
2023-11-03T00:59:04.206Z,8.81
2023-11-03T01:01:08.510Z,8.83
2023-11-03T01:03:10.113Z,8.78
2023-11-03T01:05:12.108Z,8.75
2023-11-03T01:07:14.102Z,8.77
2023-11-03T01:09:15.734Z,8.83
2023-11-03T01:11:17.198Z,8.80
2023-11-03T01:13:22.209Z,8.77
2023-11-03T01:15:24.493Z,8.73
2023-11-03T01:17:28.429Z,8.71
2023-11-03T01:19:32.103Z,8.77
2023-11-03T01:21:33.898Z,8.74
2023-11-03T01:23:36.937Z,8.72
2023-11-03T01:25:38.403Z,8.70
2023-11-03T01:27:39.959Z,8.68
2023-11-03T01:29:41.803Z,8.71
2023-11-03T01:31:43.310Z,8.71
2023-11-03T01:33:46.081Z,8.64
2023-11-03T01:35:47.539Z,8.66
2023-11-03T01:37:49.092Z,8.71
2023-11-03T01:39:51.904Z,8.70
2023-11-03T01:41:53.456Z,8.66
2023-11-03T01:44:10.341Z,8.67
2023-11-03T01:46:11.912Z,8.70
2023-11-03T01:48:13.437Z,8.59
2023-11-03T01:50:16.434Z,8.58
2023-11-03T01:52:18.122Z,8.60
2023-11-03T01:54:20.491Z,8.55
2023-11-03T01:56:23.149Z,8.58
2023-11-03T01:58:24.948Z,8.52
2023-11-03T02:00:27.042Z,8.50
2023-11-03T02:02:29.238Z,8.46
2023-11-03T02:04:30.963Z,8.47
2023-11-03T02:06:33.063Z,8.52
2023-11-03T02:08:34.564Z,8.59
2023-11-03T02:10:36.533Z,8.59
2023-11-03T02:12:38.157Z,8.57
2023-11-03T02:14:39.689Z,8.56
2023-11-03T02:16:41.973Z,8.64
2023-11-03T02:18:43.593Z,8.64
2023-11-03T02:20:45.179Z,8.66
2023-11-03T02:22:52.822Z,8.63
2023-11-03T02:24:54.419Z,8.65
2023-11-03T02:26:55.901Z,8.71
2023-11-03T02:28:57.377Z,8.69
2023-11-03T02:30:58.964Z,8.69
2023-11-03T02:33:00.928Z,8.69
2023-11-03T02:35:02.711Z,8.77
2023-11-03T02:37:04.887Z,8.69
2023-11-03T02:39:07.726Z,8.71
2023-11-03T02:41:09.186Z,8.67
2023-11-03T02:43:10.683Z,8.71
2023-11-03T02:45:12.247Z,8.68
2023-11-03T02:47:13.677Z,8.72
2023-11-03T02:49:15.266Z,8.69
2023-11-03T02:51:16.932Z,8.71
2023-11-03T02:53:19.542Z,8.75
2023-11-03T02:55:21.868Z,8.70
2023-11-03T02:57:23.437Z,8.72
2023-11-03T02:59:24.916Z,8.70
2023-11-03T03:01:28.273Z,8.72
2023-11-03T03:03:29.769Z,8.71
2023-11-03T03:05:31.229Z,8.67
2023-11-03T03:07:33.027Z,8.68
2023-11-03T03:09:34.498Z,8.65
2023-11-03T03:11:35.958Z,8.61
2023-11-03T03:13:37.482Z,8.62
2023-11-03T03:15:38.997Z,8.70
2023-11-03T03:17:40.514Z,8.69
2023-11-03T03:19:42.329Z,8.68
2023-11-03T03:21:43.835Z,8.66
2023-11-03T03:23:45.636Z,8.69
2023-11-03T03:25:47.202Z,8.72
2023-11-03T03:27:49.397Z,8.67
2023-11-03T03:29:50.971Z,8.68
2023-11-03T03:31:52.441Z,8.67
2023-11-03T03:33:54.063Z,8.69
2023-11-03T03:35:55.711Z,8.68
2023-11-03T03:37:57.178Z,8.73
2023-11-03T03:39:58.769Z,8.73
2023-11-03T03:42:00.336Z,8.71
2023-11-03T03:44:01.788Z,8.71
2023-11-03T03:46:03.419Z,8.69
2023-11-03T03:48:05.104Z,8.72
2023-11-03T03:50:07.522Z,8.75
2023-11-03T03:52:09.023Z,8.75
2023-11-03T03:54:10.516Z,8.75
2023-11-03T03:56:11.967Z,8.75
2023-11-03T03:58:13.448Z,8.71
2023-11-03T04:00:15.116Z,8.73
2023-11-03T04:02:18.346Z,8.75
2023-11-03T04:04:20.315Z,8.76
2023-11-03T04:06:21.815Z,8.75
2023-11-03T04:08:23.307Z,8.75
2023-11-03T04:10:24.845Z,8.74
2023-11-03T04:12:26.352Z,8.78
2023-11-03T04:14:27.861Z,8.79
2023-11-03T04:16:36.492Z,8.80
2023-11-03T04:18:44.111Z,8.79
2023-11-03T04:20:46.038Z,8.84
2023-11-03T04:22:47.503Z,8.81
2023-11-03T04:24:49.053Z,8.77
2023-11-03T04:26:50.552Z,8.73
2023-11-03T04:28:52.244Z,8.69
2023-11-03T04:30:53.678Z,8.74
2023-11-03T04:32:55.211Z,8.69
2023-11-03T04:34:56.888Z,8.69
2023-11-03T04:36:58.401Z,8.75
2023-11-03T04:39:00.002Z,8.72
2023-11-03T04:41:02.184Z,8.63
2023-11-03T04:43:03.989Z,8.61
2023-11-03T04:45:05.795Z,8.66
2023-11-03T04:47:07.295Z,8.74
2023-11-03T04:49:09.017Z,8.68
2023-11-03T04:51:11.474Z,8.66
2023-11-03T04:53:13.023Z,8.57
2023-11-03T04:55:14.728Z,8.54
2023-11-03T04:57:18.124Z,8.47
2023-11-03T04:59:21.850Z,8.56
2023-11-03T05:01:24.481Z,8.55
2023-11-03T05:03:26.016Z,8.50
2023-11-03T05:05:31.224Z,8.54
2023-11-03T05:07:34.721Z,8.46
2023-11-03T05:09:38.088Z,8.53
2023-11-03T05:11:39.635Z,8.45
2023-11-03T05:13:45.982Z,8.47
2023-11-03T05:15:48.652Z,8.47
2023-11-03T05:17:50.235Z,8.52
2023-11-03T05:19:52.213Z,8.52
2023-11-03T05:21:54.674Z,8.52
2023-11-03T05:23:56.280Z,8.57
2023-11-03T05:25:57.915Z,8.54
2023-11-03T05:27:59.477Z,8.55
2023-11-03T05:30:01.138Z,8.58
2023-11-03T05:32:03.433Z,8.61
2023-11-03T05:34:05.027Z,8.58
2023-11-03T05:36:06.868Z,8.58
2023-11-03T05:38:08.294Z,8.60
2023-11-03T05:40:12.820Z,8.66
2023-11-03T05:42:14.399Z,8.65
2023-11-03T05:44:16.127Z,8.68
2023-11-03T05:46:18.419Z,8.69
2023-11-03T05:48:19.873Z,8.69
2023-11-03T05:50:21.416Z,8.68
2023-11-03T05:52:22.989Z,8.65
2023-11-03T05:54:24.767Z,8.62
2023-11-03T05:56:26.766Z,8.63
2023-11-03T05:58:28.287Z,8.67
2023-11-03T06:00:31.290Z,8.67
2023-11-03T06:02:32.780Z,8.70
2023-11-03T06:04:35.494Z,8.73
2023-11-03T06:06:37.004Z,8.72
2023-11-03T06:08:38.792Z,8.72
2023-11-03T06:10:40.227Z,8.70
2023-11-03T06:12:42.124Z,8.73
2023-11-03T06:14:43.563Z,8.78
2023-11-03T06:16:45.034Z,8.73
2023-11-03T06:18:47.072Z,8.71
2023-11-03T06:20:48.976Z,8.75
2023-11-03T06:22:50.502Z,8.72
2023-11-03T06:24:52.099Z,8.72
2023-11-03T06:26:56.792Z,8.71
2023-11-03T06:28:58.357Z,8.70
2023-11-03T06:31:00.684Z,8.69
2023-11-03T06:33:02.206Z,8.67
2023-11-03T06:35:05.024Z,8.68
2023-11-03T06:37:06.820Z,8.70
2023-11-03T06:39:08.271Z,8.64
2023-11-03T06:41:13.161Z,8.64
2023-11-03T06:43:14.714Z,8.66
2023-11-03T06:45:17.396Z,8.68
2023-11-03T06:47:18.934Z,8.68
2023-11-03T06:49:20.525Z,8.68
2023-11-03T06:51:22.049Z,8.67
2023-11-03T06:53:26.667Z,8.67
2023-11-03T06:55:28.975Z,8.68
2023-11-03T06:57:30.917Z,8.75
2023-11-03T06:59:34.626Z,8.70
2023-11-03T07:01:36.300Z,8.70
2023-11-03T07:03:37.843Z,8.76
2023-11-03T07:05:39.962Z,8.70
2023-11-03T07:07:41.926Z,8.75
2023-11-03T07:09:44.068Z,8.80
2023-11-03T07:11:46.461Z,8.82
2023-11-03T07:13:48.246Z,8.86
2023-11-03T07:15:49.788Z,8.83
2023-11-03T07:17:51.936Z,8.80
2023-11-03T07:19:53.881Z,8.83
2023-11-03T07:21:56.293Z,8.82
2023-11-03T07:23:57.883Z,8.82
2023-11-03T07:26:02.262Z,8.85
2023-11-03T07:28:03.965Z,8.79
2023-11-03T07:30:06.810Z,8.79
2023-11-03T07:32:08.647Z,8.83
2023-11-03T07:34:10.199Z,8.82
2023-11-03T07:36:12.384Z,8.81
2023-11-03T07:38:14.362Z,8.82
2023-11-03T07:40:16.061Z,8.85
2023-11-03T07:42:17.723Z,8.90
2023-11-03T07:44:19.198Z,9.04
2023-11-03T07:46:20.736Z,9.09
2023-11-03T07:48:23.994Z,9.16
2023-11-03T07:50:26.294Z,9.25
2023-11-03T07:52:27.845Z,9.28
2023-11-03T07:54:29.662Z,9.37
2023-11-03T07:56:35.735Z,9.46
2023-11-03T07:58:38.403Z,9.47
2023-11-03T08:00:39.880Z,9.51
2023-11-03T08:02:42.734Z,9.55
2023-11-03T08:04:44.346Z,9.61
2023-11-03T08:06:49.611Z,9.67
2023-11-03T08:08:51.454Z,9.70
2023-11-03T08:10:54.260Z,9.72
2023-11-03T08:12:58.487Z,9.78
2023-11-03T08:15:07.380Z,9.76
2023-11-03T08:17:14.789Z,9.76
2023-11-03T08:19:16.434Z,9.77
2023-11-03T08:21:17.972Z,9.76
2023-11-03T08:23:23.009Z,9.74
2023-11-03T08:25:25.018Z,9.69
2023-11-03T08:27:26.471Z,9.62
2023-11-03T08:29:28.320Z,9.65
2023-11-03T08:31:29.833Z,9.64
2023-11-03T08:33:31.520Z,9.63
2023-11-03T08:35:33.035Z,9.63
2023-11-03T08:37:34.650Z,9.67
2023-11-03T08:39:36.779Z,9.66
2023-11-03T08:41:39.100Z,9.67
2023-11-03T08:43:40.612Z,9.65
2023-11-03T08:45:42.247Z,9.67
2023-11-03T08:47:44.231Z,9.71
2023-11-03T08:49:45.996Z,9.70
2023-11-03T08:51:48.105Z,9.72
2023-11-03T08:53:49.668Z,9.71
2023-11-03T08:55:52.165Z,9.67
2023-11-03T08:57:55.736Z,9.64
2023-11-03T08:59:57.213Z,9.68
2023-11-03T09:01:58.691Z,9.67
2023-11-03T09:04:00.642Z,9.67
2023-11-03T09:06:02.482Z,9.66
2023-11-03T09:08:04.300Z,9.63
2023-11-03T09:10:08.002Z,9.60
2023-11-03T09:12:09.629Z,9.44
2023-11-03T09:14:11.242Z,9.46
2023-11-03T09:16:12.680Z,9.51
2023-11-03T09:18:16.037Z,9.48
2023-11-03T09:20:19.375Z,9.48
2023-11-03T09:22:28.552Z,9.49
2023-11-03T09:24:35.364Z,9.49
2023-11-03T09:26:36.785Z,9.48
2023-11-03T09:28:40.416Z,9.44
2023-11-03T09:30:43.347Z,9.43
2023-11-03T09:32:48.732Z,9.50
2023-11-03T09:34:50.490Z,9.54
2023-11-03T09:36:52.091Z,9.51
2023-11-03T09:38:53.564Z,9.45
2023-11-03T09:40:55.643Z,9.42
2023-11-03T09:42:57.137Z,9.45
2023-11-03T09:44:59.560Z,9.43
2023-11-03T09:47:02.689Z,9.35
2023-11-03T09:49:04.599Z,9.38
2023-11-03T09:51:08.059Z,9.46
2023-11-03T09:53:12.884Z,9.52
2023-11-03T09:55:21.176Z,9.57
2023-11-03T09:57:24.378Z,9.56
2023-11-03T09:59:26.567Z,9.58
2023-11-03T10:01:29.147Z,9.62
2023-11-03T10:03:30.788Z,9.67
2023-11-03T10:05:34.627Z,9.70
2023-11-03T10:07:36.164Z,9.76
2023-11-03T10:09:38.728Z,9.78
2023-11-03T10:11:41.689Z,9.86
2023-11-03T10:13:43.137Z,9.93
2023-11-03T10:15:45.249Z,10.10
2023-11-03T10:17:48.373Z,10.18
2023-11-03T10:22:15.637Z,10.33
2023-11-03T10:24:17.111Z,10.44
2023-11-03T10:26:18.638Z,10.38
2023-11-03T10:28:25.718Z,10.59
2023-11-03T10:30:28.558Z,10.70
2023-11-03T10:32:30.130Z,10.65
2023-11-03T10:34:32.040Z,10.78
2023-11-03T10:36:33.526Z,10.77
2023-11-03T10:38:35.096Z,10.74
2023-11-03T10:40:36.607Z,10.74
2023-11-03T10:42:49.385Z,10.74
2023-11-03T10:44:57.098Z,10.74
2023-11-03T10:47:11.426Z,10.75
2023-11-03T10:49:22.542Z,10.73
2023-11-03T10:51:34.861Z,10.72
2023-11-03T10:54:12.144Z,10.80
2023-11-03T10:56:26.720Z,10.79
2023-11-03T10:58:36.000Z,10.83
2023-11-03T11:01:04.523Z,10.83
2023-11-03T11:03:18.315Z,10.86
2023-11-03T11:05:39.330Z,10.93
2023-11-03T11:07:43.084Z,10.92
2023-11-03T11:09:50.072Z,10.98
2023-11-03T11:11:52.016Z,11.02
2023-11-03T11:13:54.053Z,11.08
2023-11-03T11:15:58.735Z,11.16
2023-11-03T11:18:15.065Z,11.18
2023-11-03T11:20:31.560Z,11.26
2023-11-03T11:22:41.475Z,11.32
2023-11-03T11:24:46.184Z,11.39
2023-11-03T11:26:52.585Z,11.42
2023-11-03T11:28:54.119Z,11.47
2023-11-03T11:30:55.597Z,11.56
2023-11-03T11:32:57.241Z,11.55
2023-11-03T11:34:58.911Z,11.52
2023-11-03T11:37:25.002Z,11.57
2023-11-03T11:39:27.152Z,11.67
2023-11-03T11:41:34.762Z,11.74
2023-11-03T11:43:45.068Z,11.79
2023-11-03T11:45:53.109Z,11.79
2023-11-03T11:47:56.597Z,11.83
2023-11-03T11:49:59.378Z,11.83
2023-11-03T11:52:01.619Z,11.81
2023-11-03T11:54:04.119Z,11.86
2023-11-03T11:56:06.901Z,11.91
2023-11-03T11:58:10.374Z,11.90
2023-11-03T12:00:20.493Z,11.79
2023-11-03T12:02:22.998Z,11.88
2023-11-03T12:04:25.245Z,11.97
2023-11-03T12:06:27.273Z,11.99
2023-11-03T12:08:28.812Z,11.96
2023-11-03T12:10:34.423Z,12.10
2023-11-03T12:12:36.247Z,12.19
2023-11-03T12:14:38.216Z,12.13
2023-11-03T12:16:39.850Z,12.36
2023-11-03T12:18:42.764Z,12.38
2023-11-03T12:21:03.305Z,12.20
2023-11-03T12:23:05.439Z,12.19
2023-11-03T12:25:07.649Z,12.24
2023-11-03T12:27:09.144Z,12.23
2023-11-03T12:29:32.393Z,12.19
2023-11-03T12:31:34.077Z,12.11
2023-11-03T12:33:37.272Z,12.11
2023-11-03T12:35:38.797Z,12.09
2023-11-03T12:37:44.460Z,12.12
2023-11-03T12:39:53.811Z,12.22
2023-11-03T12:42:08.375Z,12.34
2023-11-03T12:44:09.852Z,12.32
2023-11-03T12:46:11.600Z,12.33
2023-11-03T12:48:22.683Z,12.17
2023-11-03T12:50:26.735Z,12.28
2023-11-03T12:52:28.341Z,12.34
2023-11-03T12:54:31.052Z,12.32
2023-11-03T12:56:46.562Z,12.22
2023-11-03T12:58:48.669Z,12.14
2023-11-03T13:00:50.711Z,12.17
2023-11-03T13:02:53.845Z,12.18
2023-11-03T13:04:55.503Z,12.07
2023-11-03T13:06:58.923Z,12.11
2023-11-03T13:09:01.927Z,12.08
2023-11-03T13:11:05.456Z,12.12
2023-11-03T13:13:10.325Z,12.24
2023-11-03T13:15:12.283Z,12.17
2023-11-03T13:17:15.785Z,12.22
2023-11-03T13:19:18.142Z,12.08
2023-11-03T13:21:19.699Z,12.03
2023-11-03T13:23:21.277Z,12.01
2023-11-03T13:25:22.769Z,12.06
2023-11-03T13:27:24.294Z,12.10
2023-11-03T13:29:25.748Z,12.07
2023-11-03T13:31:27.296Z,12.06
2023-11-03T13:33:28.765Z,11.94
2023-11-03T13:35:30.602Z,11.90
2023-11-03T13:37:32.569Z,11.81
2023-11-03T13:39:34.367Z,11.89
2023-11-03T13:41:35.779Z,11.88
2023-11-03T13:43:40.408Z,12.06
2023-11-03T13:45:42.036Z,12.03
2023-11-03T13:47:43.791Z,11.96
2023-11-03T13:49:46.157Z,11.97
2023-11-03T13:51:51.243Z,11.91
2023-11-03T13:53:52.679Z,11.97
2023-11-03T13:55:54.314Z,11.77
2023-11-03T13:58:01.394Z,11.90
2023-11-03T14:00:07.408Z,11.90
2023-11-03T14:02:08.959Z,11.97
2023-11-03T14:04:10.477Z,12.05
2023-11-03T14:06:12.034Z,11.96
2023-11-03T14:08:14.969Z,11.99
2023-11-03T14:10:16.781Z,11.94
2023-11-03T14:12:21.379Z,11.84
2023-11-03T14:14:26.785Z,11.80
2023-11-03T14:16:29.439Z,11.87
2023-11-03T14:18:31.019Z,11.89
2023-11-03T14:20:32.568Z,11.84
2023-11-03T14:22:34.109Z,11.87
2023-11-03T14:24:36.402Z,11.80
2023-11-03T14:26:40.743Z,11.78
2023-11-03T14:28:42.242Z,11.88
2023-11-03T14:30:43.781Z,11.90
2023-11-03T14:32:45.234Z,11.91
2023-11-03T14:34:47.480Z,11.78
2023-11-03T14:36:51.490Z,11.85
2023-11-03T14:38:53.807Z,11.92
2023-11-03T14:40:55.540Z,11.87
2023-11-03T14:42:57.020Z,11.85
2023-11-03T14:44:59.344Z,11.88
2023-11-03T14:47:00.840Z,11.78
2023-11-03T14:49:07.632Z,11.75
2023-11-03T14:51:12.228Z,11.61
2023-11-03T14:53:14.626Z,11.63
2023-11-03T14:55:23.067Z,11.52
2023-11-03T14:57:25.289Z,11.51
2023-11-03T14:59:28.190Z,11.40
2023-11-03T15:01:33.249Z,11.41
2023-11-03T15:03:35.625Z,11.31
2023-11-03T15:05:38.508Z,11.33
2023-11-03T15:07:41.240Z,11.22
2023-11-03T15:09:42.914Z,11.26
2023-11-03T15:11:50.806Z,11.22
2023-11-03T15:13:55.841Z,11.25
2023-11-03T15:15:57.369Z,11.16
2023-11-03T15:18:01.736Z,11.07
2023-11-03T15:20:11.089Z,10.97
2023-11-03T15:22:12.585Z,11.00
2023-11-03T15:24:14.135Z,11.06
2023-11-03T15:26:15.604Z,11.11
2023-11-03T15:28:18.825Z,11.11
2023-11-03T15:30:23.772Z,11.07
2023-11-03T15:32:25.740Z,10.96
2023-11-03T15:34:27.416Z,10.91
2023-11-03T15:36:31.141Z,10.89
2023-11-03T15:38:33.521Z,10.81
2023-11-03T15:40:35.017Z,10.62
2023-11-03T15:42:38.966Z,10.63
2023-11-03T15:44:40.928Z,10.58
2023-11-03T15:46:42.391Z,10.41
2023-11-03T15:48:45.655Z,10.41
2023-11-03T15:50:47.466Z,10.33
2023-11-03T15:52:51.268Z,10.29
2023-11-03T15:54:52.839Z,10.19
2023-11-03T15:56:55.230Z,10.11
2023-11-03T15:58:56.873Z,10.16
2023-11-03T16:00:58.493Z,10.00
2023-11-03T16:03:00.057Z,9.86
2023-11-03T16:05:03.654Z,9.81
2023-11-03T16:07:06.187Z,9.75
2023-11-03T16:09:12.759Z,9.64
2023-11-03T16:11:14.457Z,9.56
2023-11-03T16:13:19.515Z,9.59
2023-11-03T16:15:21.090Z,9.61
2023-11-03T16:17:22.545Z,9.49
2023-11-03T16:19:25.644Z,9.34
2023-11-03T16:21:28.316Z,9.32
2023-11-03T16:23:29.779Z,9.36
2023-11-03T16:25:31.330Z,9.22
2023-11-03T16:27:32.784Z,9.17
2023-11-03T16:29:34.245Z,9.14
2023-11-03T16:31:35.732Z,9.07
2023-11-03T16:33:37.438Z,8.98
2023-11-03T16:35:39.297Z,9.00
2023-11-03T16:37:42.033Z,8.81
2023-11-03T16:39:45.264Z,8.93
2023-11-03T16:41:46.755Z,8.87
2023-11-03T16:43:48.262Z,8.74
2023-11-03T16:45:49.663Z,8.86
2023-11-03T16:47:51.163Z,8.86
2023-11-03T16:49:52.821Z,8.77
2023-11-03T16:51:54.448Z,8.70
2023-11-03T16:53:56.098Z,8.60
2023-11-03T16:55:57.654Z,8.51
2023-11-03T16:57:59.208Z,8.38
2023-11-03T17:00:01.294Z,8.40
2023-11-03T17:02:05.489Z,8.35
2023-11-03T17:04:09.560Z,8.28
2023-11-03T17:06:12.632Z,8.27
2023-11-03T17:08:14.517Z,8.23
2023-11-03T17:10:16.336Z,8.16
2023-11-03T17:12:17.881Z,8.11
2023-11-03T17:14:21.983Z,8.05
2023-11-03T17:16:27.437Z,7.96
2023-11-03T17:18:28.981Z,7.89
2023-11-03T17:20:30.532Z,7.89
2023-11-03T17:22:32.012Z,7.85
2023-11-03T17:24:34.546Z,7.82
2023-11-03T17:26:35.963Z,7.74
2023-11-03T17:28:37.508Z,7.72
2023-11-03T17:30:39.127Z,7.71
2023-11-03T17:32:40.801Z,7.67
2023-11-03T17:34:44.374Z,7.70
2023-11-03T17:36:46.245Z,7.71
2023-11-03T17:38:47.719Z,7.69
2023-11-03T17:40:49.224Z,7.70
2023-11-03T17:42:51.861Z,7.67
2023-11-03T17:44:54.352Z,7.53
2023-11-03T17:46:56.788Z,7.49
2023-11-03T17:48:58.290Z,7.46
2023-11-03T17:50:59.811Z,7.47
2023-11-03T17:53:02.153Z,7.40
2023-11-03T17:55:05.214Z,7.38
2023-11-03T17:57:07.472Z,7.26
2023-11-03T17:59:08.981Z,7.35
2023-11-03T18:01:10.486Z,7.25
2023-11-03T18:03:14.132Z,7.20
2023-11-03T18:05:17.188Z,7.20
2023-11-03T18:07:19.898Z,7.14
2023-11-03T18:09:21.378Z,7.16
2023-11-03T18:11:26.851Z,7.17
2023-11-03T18:13:29.872Z,7.09
2023-11-03T18:15:31.409Z,7.11
2023-11-03T18:17:34.534Z,7.09
2023-11-03T18:19:39.956Z,7.07
2023-11-03T18:21:41.531Z,7.04
2023-11-03T18:23:43.031Z,7.11
2023-11-03T18:25:44.613Z,7.11
2023-11-03T18:27:46.381Z,7.02
2023-11-03T18:29:48.300Z,6.96
2023-11-03T18:31:49.818Z,6.92
2023-11-03T18:33:51.343Z,6.95
2023-11-03T18:35:52.785Z,6.92
2023-11-03T18:37:54.480Z,6.88
2023-11-03T18:39:55.922Z,6.87
2023-11-03T18:41:57.699Z,6.83
2023-11-03T18:43:59.225Z,6.91
2023-11-03T18:46:00.703Z,6.85
2023-11-03T18:48:05.112Z,6.80
2023-11-03T18:51:23.038Z,6.78
2023-11-03T18:52:30.197Z,6.78
2023-11-03T18:58:13.519Z,6.78
2023-11-03T19:07:08.824Z,6.71
2023-11-03T19:07:41.411Z,6.74
2023-11-03T19:09:43.907Z,6.76
2023-11-03T19:11:45.371Z,6.67
2023-11-03T19:13:48.269Z,6.65
2023-11-03T19:15:52.094Z,6.62
2023-11-03T19:17:53.842Z,6.55
2023-11-03T19:19:55.392Z,6.52
2023-11-03T19:21:58.122Z,6.49
2023-11-03T19:23:59.625Z,6.49
2023-11-03T19:26:01.097Z,6.49
2023-11-03T19:28:05.318Z,6.50
2023-11-03T19:30:07.354Z,6.42
2023-11-03T19:32:09.025Z,6.38
2023-11-03T19:34:11.074Z,6.35
2023-11-03T19:36:20.382Z,6.47
2023-11-03T19:38:22.924Z,6.45
2023-11-03T19:40:27.126Z,6.44
2023-11-03T19:42:28.681Z,6.43
2023-11-03T19:44:30.132Z,6.39
2023-11-03T19:46:31.679Z,6.36
2023-11-03T19:48:33.257Z,6.40
2023-11-03T19:50:35.491Z,6.42
2023-11-03T19:52:37.445Z,6.39
2023-11-03T19:54:38.881Z,6.32
2023-11-03T19:56:41.542Z,6.30
2023-11-03T19:58:43.166Z,6.30
2023-11-03T20:00:48.886Z,6.27
2023-11-03T20:02:50.650Z,6.25
2023-11-03T20:04:53.268Z,6.25
2023-11-03T20:06:55.155Z,6.29
2023-11-03T20:08:56.916Z,6.28
2023-11-03T20:10:58.487Z,6.24
2023-11-03T20:13:00.008Z,6.22
2023-11-03T20:15:02.393Z,6.26
2023-11-03T20:17:05.301Z,6.26
2023-11-03T20:19:06.910Z,6.27
2023-11-03T20:21:08.533Z,6.25
2023-11-03T20:23:10.520Z,6.26
2023-11-03T20:25:11.945Z,6.23
2023-11-03T20:27:13.627Z,6.23
2023-11-03T20:29:15.330Z,6.24
2023-11-03T20:31:17.190Z,6.32
2023-11-03T20:33:21.090Z,6.35
2023-11-03T20:35:23.118Z,6.35
2023-11-03T20:37:24.794Z,6.35
2023-11-03T20:39:26.335Z,6.40
2023-11-03T20:41:27.777Z,6.41
2023-11-03T20:43:30.027Z,6.36
2023-11-03T20:45:32.289Z,6.34
2023-11-03T20:47:34.204Z,6.34
2023-11-03T20:49:36.320Z,6.30
2023-11-03T20:51:37.962Z,6.25
2023-11-03T20:53:39.489Z,6.22
2023-11-03T20:55:42.994Z,6.19
2023-11-03T20:57:44.989Z,6.23
2023-11-03T20:59:46.563Z,6.24
2023-11-03T21:01:48.094Z,6.17
2023-11-03T21:03:50.386Z,6.16
2023-11-03T21:05:58.816Z,6.18
2023-11-03T21:08:00.867Z,6.15
2023-11-03T21:10:02.329Z,6.13
2023-11-03T21:12:04.130Z,6.10
2023-11-03T21:14:06.235Z,6.08
2023-11-03T21:16:08.197Z,6.08
2023-11-03T21:18:12.547Z,6.04
2023-11-03T21:20:14.196Z,6.09
2023-11-03T21:22:15.807Z,6.05
2023-11-03T21:24:17.309Z,6.12
2023-11-03T21:26:21.380Z,6.03
2023-11-03T21:28:22.929Z,5.98
2023-11-03T21:30:24.579Z,5.93
2023-11-03T21:32:26.023Z,5.93
2023-11-03T21:34:27.572Z,5.90
2023-11-03T21:36:29.424Z,5.84
2023-11-03T21:38:32.533Z,5.79
2023-11-03T21:40:34.075Z,5.79
2023-11-03T21:42:35.853Z,5.80
2023-11-03T21:44:37.711Z,5.80
2023-11-03T21:46:39.200Z,5.80
2023-11-03T21:48:40.720Z,5.82
2023-11-03T21:50:42.382Z,5.81
2023-11-03T21:52:44.069Z,5.79
2023-11-03T21:54:45.602Z,5.75
2023-11-03T21:56:47.085Z,5.71
2023-11-03T21:58:51.247Z,5.65
2023-11-03T22:00:52.730Z,5.63
2023-11-03T22:02:54.273Z,5.60
2023-11-03T22:04:59.823Z,5.60
2023-11-03T22:07:01.245Z,5.61
2023-11-03T22:09:09.386Z,5.62
2023-11-03T22:11:11.697Z,5.65
2023-11-03T22:13:13.179Z,5.66
2023-11-03T22:15:19.798Z,5.60
2023-11-03T22:17:21.222Z,5.56
2023-11-03T22:19:22.846Z,5.54
2023-11-03T22:21:24.558Z,5.59
2023-11-03T22:23:26.063Z,5.65
2023-11-03T22:25:28.747Z,5.62
2023-11-03T22:27:30.363Z,5.64
2023-11-03T22:29:39.626Z,5.58
2023-11-03T22:31:49.666Z,5.52
2023-11-03T22:33:51.228Z,5.47
2023-11-03T22:35:53.179Z,5.50
2023-11-03T22:37:54.640Z,5.53
2023-11-03T22:39:56.065Z,5.57
2023-11-03T22:41:57.468Z,5.56
2023-11-03T22:43:58.897Z,5.54
2023-11-03T22:46:00.350Z,5.55
2023-11-03T22:50:28.978Z,5.54
2023-11-03T22:52:30.411Z,5.59
2023-11-03T22:54:32.260Z,5.60
2023-11-03T22:56:33.778Z,5.62
2023-11-03T22:58:36.848Z,5.66
2023-11-03T23:00:38.287Z,5.70
2023-11-03T23:02:41.103Z,5.70
2023-11-03T23:04:42.550Z,5.74
2023-11-03T23:06:44.112Z,5.81
2023-11-03T23:08:46.542Z,5.82
2023-11-03T23:10:50.412Z,5.82
2023-11-03T23:12:51.956Z,5.88
2023-11-03T23:14:53.836Z,5.94
2023-11-03T23:16:55.402Z,5.98
2023-11-03T23:18:56.987Z,6.00
2023-11-03T23:20:58.513Z,6.00
2023-11-03T23:23:00.460Z,6.05
2023-11-03T23:25:02.251Z,6.09
2023-11-03T23:27:03.801Z,6.13
2023-11-03T23:29:05.274Z,6.13
2023-11-03T23:31:06.984Z,6.15
2023-11-03T23:33:08.497Z,6.23
2023-11-03T23:35:10.177Z,6.29
2023-11-03T23:37:12.050Z,6.27
2023-11-03T23:39:14.313Z,6.25
2023-11-03T23:41:15.782Z,6.28
2023-11-03T23:43:17.226Z,6.24
2023-11-03T23:45:18.731Z,6.31
2023-11-03T23:47:20.277Z,6.26
2023-11-03T23:49:21.785Z,6.24
2023-11-03T23:51:23.319Z,6.22
2023-11-03T23:53:24.786Z,6.19
2023-11-03T23:55:26.235Z,6.16
2023-11-03T23:57:27.700Z,6.19
2023-11-03T23:59:30.556Z,6.15
